sensor_id;sensor_type;location;lat;lon;timestamp;temperature;humidity
8152;DHT22;4117;53.622;9.958;2024-03-22T00:02:08;8.00;99.90
8152;DHT22;4117;53.622;9.958;2024-03-22T00:04:35;8.00;99.90
8152;DHT22;4117;53.622;9.958;2024-03-22T00:07:01;8.00;99.90
8152;DHT22;4117;53.622;9.958;2024-03-22T00:09:29;8.00;99.90
8152;DHT22;4117;53.622;9.958;2024-03-22T00:11:55;8.00;99.90
8152;DHT22;4117;53.622;9.958;2024-03-22T00:14:22;8.00;99.90
8152;DHT22;4117;53.622;9.958;2024-03-22T00:16:48;8.00;99.90
8152;DHT22;4117;53.622;9.958;2024-03-22T00:19:17;8.00;99.90
8152;DHT22;4117;53.622;9.958;2024-03-22T00:21:43;8.00;99.90
8152;DHT22;4117;53.622;9.958;2024-03-22T00:24:10;8.00;99.90
8152;DHT22;4117;53.622;9.958;2024-03-22T00:26:35;8.00;99.90
8152;DHT22;4117;53.622;9.958;2024-03-22T00:29:02;8.00;99.90
8152;DHT22;4117;53.622;9.958;2024-03-22T00:31:28;8.00;99.90
8152;DHT22;4117;53.622;9.958;2024-03-22T00:33:58;8.10;99.90
8152;DHT22;4117;53.622;9.958;2024-03-22T00:36:25;8.10;99.90
8152;DHT22;4117;53.622;9.958;2024-03-22T00:38:52;8.10;99.90
8152;DHT22;4117;53.622;9.958;2024-03-22T00:41:18;8.10;99.90
8152;DHT22;4117;53.622;9.958;2024-03-22T00:43:45;8.10;99.90
8152;DHT22;4117;53.622;9.958;2024-03-22T00:46:11;8.10;99.90
8152;DHT22;4117;53.622;9.958;2024-03-22T00:48:38;8.10;99.90
8152;DHT22;4117;53.622;9.958;2024-03-22T00:51:04;8.10;99.90
8152;DHT22;4117;53.622;9.958;2024-03-22T00:53:32;8.10;99.90
8152;DHT22;4117;53.622;9.958;2024-03-22T00:55:58;8.10;99.90
8152;DHT22;4117;53.622;9.958;2024-03-22T00:58:26;8.10;99.90
8152;DHT22;4117;53.622;9.958;2024-03-22T01:00:52;8.00;99.90
8152;DHT22;4117;53.622;9.958;2024-03-22T01:03:20;8.10;99.90
8152;DHT22;4117;53.622;9.958;2024-03-22T01:05:46;8.10;99.90
8152;DHT22;4117;53.622;9.958;2024-03-22T01:08:13;8.10;99.90
8152;DHT22;4117;53.622;9.958;2024-03-22T01:10:40;8.10;99.90
8152;DHT22;4117;53.622;9.958;2024-03-22T01:13:07;8.10;99.90
8152;DHT22;4117;53.622;9.958;2024-03-22T01:15:33;8.10;99.90
8152;DHT22;4117;53.622;9.958;2024-03-22T01:18:00;8.10;99.90
8152;DHT22;4117;53.622;9.958;2024-03-22T01:20:26;8.10;99.90
8152;DHT22;4117;53.622;9.958;2024-03-22T01:22:53;8.20;99.90
8152;DHT22;4117;53.622;9.958;2024-03-22T01:25:19;8.20;99.90
8152;DHT22;4117;53.622;9.958;2024-03-22T01:27:47;8.20;99.90
8152;DHT22;4117;53.622;9.958;2024-03-22T01:30:13;8.20;99.90
8152;DHT22;4117;53.622;9.958;2024-03-22T01:32:40;8.20;99.90
8152;DHT22;4117;53.622;9.958;2024-03-22T01:35:06;8.20;99.90
8152;DHT22;4117;53.622;9.958;2024-03-22T01:37:33;8.20;99.90
8152;DHT22;4117;53.622;9.958;2024-03-22T01:39:59;8.20;99.90
8152;DHT22;4117;53.622;9.958;2024-03-22T01:42:26;8.20;99.90
8152;DHT22;4117;53.622;9.958;2024-03-22T01:44:53;8.20;99.90
8152;DHT22;4117;53.622;9.958;2024-03-22T01:47:20;8.20;99.90
8152;DHT22;4117;53.622;9.958;2024-03-22T01:49:47;8.10;99.90
8152;DHT22;4117;53.622;9.958;2024-03-22T01:52:14;8.10;99.90
8152;DHT22;4117;53.622;9.958;2024-03-22T01:54:40;8.20;99.90
8152;DHT22;4117;53.622;9.958;2024-03-22T01:57:08;8.20;99.90
8152;DHT22;4117;53.622;9.958;2024-03-22T01:59:34;8.20;99.90
8152;DHT22;4117;53.622;9.958;2024-03-22T02:02:03;8.20;99.90
8152;DHT22;4117;53.622;9.958;2024-03-22T02:04:29;8.20;99.90
8152;DHT22;4117;53.622;9.958;2024-03-22T02:06:55;8.20;99.90
8152;DHT22;4117;53.622;9.958;2024-03-22T02:09:21;8.20;99.90
8152;DHT22;4117;53.622;9.958;2024-03-22T02:11:49;8.20;99.90
8152;DHT22;4117;53.622;9.958;2024-03-22T02:14:15;8.20;99.90
8152;DHT22;4117;53.622;9.958;2024-03-22T02:16:42;8.30;99.90
8152;DHT22;4117;53.622;9.958;2024-03-22T02:19:09;8.30;99.90
8152;DHT22;4117;53.622;9.958;2024-03-22T02:21:36;8.30;99.90
8152;DHT22;4117;53.622;9.958;2024-03-22T02:24:04;8.30;99.90
8152;DHT22;4117;53.622;9.958;2024-03-22T02:26:31;8.30;99.90
8152;DHT22;4117;53.622;9.958;2024-03-22T02:28:57;8.30;99.90
8152;DHT22;4117;53.622;9.958;2024-03-22T02:31:24;8.30;99.90
8152;DHT22;4117;53.622;9.958;2024-03-22T02:33:51;8.40;99.90
8152;DHT22;4117;53.622;9.958;2024-03-22T02:36:18;8.40;99.90
8152;DHT22;4117;53.622;9.958;2024-03-22T02:38:44;8.40;99.90
8152;DHT22;4117;53.622;9.958;2024-03-22T02:41:12;8.40;99.90
8152;DHT22;4117;53.622;9.958;2024-03-22T02:43:38;8.40;99.90
8152;DHT22;4117;53.622;9.958;2024-03-22T02:46:05;8.40;99.90
8152;DHT22;4117;53.622;9.958;2024-03-22T02:48:31;8.40;99.90
8152;DHT22;4117;53.622;9.958;2024-03-22T02:50:58;8.40;99.90
8152;DHT22;4117;53.622;9.958;2024-03-22T02:53:24;8.50;99.90
8152;DHT22;4117;53.622;9.958;2024-03-22T02:55:51;8.50;99.90
8152;DHT22;4117;53.622;9.958;2024-03-22T02:58:20;8.50;99.90
8152;DHT22;4117;53.622;9.958;2024-03-22T03:00:47;8.50;99.90
8152;DHT22;4117;53.622;9.958;2024-03-22T03:03:13;8.50;99.90
8152;DHT22;4117;53.622;9.958;2024-03-22T03:05:41;8.50;99.90
8152;DHT22;4117;53.622;9.958;2024-03-22T03:08:07;8.50;99.90
8152;DHT22;4117;53.622;9.958;2024-03-22T03:10:35;8.50;99.90
8152;DHT22;4117;53.622;9.958;2024-03-22T03:13:01;8.50;99.90
8152;DHT22;4117;53.622;9.958;2024-03-22T03:15:30;8.50;99.90
8152;DHT22;4117;53.622;9.958;2024-03-22T03:17:56;8.50;99.90
8152;DHT22;4117;53.622;9.958;2024-03-22T03:20:23;8.50;99.90
8152;DHT22;4117;53.622;9.958;2024-03-22T03:22:49;8.60;99.90
8152;DHT22;4117;53.622;9.958;2024-03-22T03:25:16;8.60;99.90
8152;DHT22;4117;53.622;9.958;2024-03-22T03:27:42;8.60;99.90
8152;DHT22;4117;53.622;9.958;2024-03-22T03:30:09;8.60;99.90
8152;DHT22;4117;53.622;9.958;2024-03-22T03:32:37;8.60;99.90
8152;DHT22;4117;53.622;9.958;2024-03-22T03:35:04;8.60;99.90
8152;DHT22;4117;53.622;9.958;2024-03-22T03:37:30;8.60;99.90
8152;DHT22;4117;53.622;9.958;2024-03-22T03:39:57;8.60;99.90
8152;DHT22;4117;53.622;9.958;2024-03-22T03:42:24;8.60;99.90
8152;DHT22;4117;53.622;9.958;2024-03-22T03:44:50;8.60;99.90
8152;DHT22;4117;53.622;9.958;2024-03-22T03:47:16;8.60;99.90
8152;DHT22;4117;53.622;9.958;2024-03-22T03:49:46;8.60;99.90
8152;DHT22;4117;53.622;9.958;2024-03-22T03:52:13;8.70;99.90
8152;DHT22;4117;53.622;9.958;2024-03-22T03:54:40;8.70;99.90
8152;DHT22;4117;53.622;9.958;2024-03-22T03:57:06;8.60;99.90
8152;DHT22;4117;53.622;9.958;2024-03-22T03:59:33;8.70;99.90
8152;DHT22;4117;53.622;9.958;2024-03-22T04:01:59;8.70;99.90
8152;DHT22;4117;53.622;9.958;2024-03-22T04:04:26;8.70;99.90
8152;DHT22;4117;53.622;9.958;2024-03-22T04:06:53;8.60;99.90
8152;DHT22;4117;53.622;9.958;2024-03-22T04:09:20;8.70;99.90
8152;DHT22;4117;53.622;9.958;2024-03-22T04:11:46;8.70;99.90
8152;DHT22;4117;53.622;9.958;2024-03-22T04:14:13;8.70;99.90
8152;DHT22;4117;53.622;9.958;2024-03-22T04:16:39;8.70;99.90
8152;DHT22;4117;53.622;9.958;2024-03-22T04:19:06;8.70;99.90
8152;DHT22;4117;53.622;9.958;2024-03-22T04:21:33;8.70;99.90
8152;DHT22;4117;53.622;9.958;2024-03-22T04:24:01;8.80;99.90
8152;DHT22;4117;53.622;9.958;2024-03-22T04:26:27;8.80;99.90
8152;DHT22;4117;53.622;9.958;2024-03-22T04:28:54;8.80;99.90
8152;DHT22;4117;53.622;9.958;2024-03-22T04:31:20;8.80;99.90
8152;DHT22;4117;53.622;9.958;2024-03-22T04:33:47;8.80;99.90
8152;DHT22;4117;53.622;9.958;2024-03-22T04:36:13;8.80;99.90
8152;DHT22;4117;53.622;9.958;2024-03-22T04:38:40;8.80;99.90
8152;DHT22;4117;53.622;9.958;2024-03-22T04:41:08;8.80;99.90
8152;DHT22;4117;53.622;9.958;2024-03-22T04:43:35;8.80;99.90
8152;DHT22;4117;53.622;9.958;2024-03-22T04:46:02;8.80;99.90
8152;DHT22;4117;53.622;9.958;2024-03-22T04:48:28;8.80;99.90
8152;DHT22;4117;53.622;9.958;2024-03-22T04:50:56;8.80;99.90
8152;DHT22;4117;53.622;9.958;2024-03-22T04:53:23;8.80;99.90
8152;DHT22;4117;53.622;9.958;2024-03-22T04:55:49;8.80;99.90
8152;DHT22;4117;53.622;9.958;2024-03-22T04:58:19;8.90;99.90
8152;DHT22;4117;53.622;9.958;2024-03-22T05:00:46;8.90;99.90
8152;DHT22;4117;53.622;9.958;2024-03-22T05:03:13;8.80;99.90
8152;DHT22;4117;53.622;9.958;2024-03-22T05:05:40;8.80;99.90
8152;DHT22;4117;53.622;9.958;2024-03-22T05:08:07;8.90;99.90
8152;DHT22;4117;53.622;9.958;2024-03-22T05:10:34;8.90;99.90
8152;DHT22;4117;53.622;9.958;2024-03-22T05:13:01;8.90;99.90
8152;DHT22;4117;53.622;9.958;2024-03-22T05:15:28;8.90;99.90
8152;DHT22;4117;53.622;9.958;2024-03-22T05:17:57;8.90;99.90
8152;DHT22;4117;53.622;9.958;2024-03-22T05:20:23;9.00;99.90
8152;DHT22;4117;53.622;9.958;2024-03-22T05:22:50;9.00;99.90
8152;DHT22;4117;53.622;9.958;2024-03-22T05:25:17;9.00;99.90
8152;DHT22;4117;53.622;9.958;2024-03-22T05:27:46;9.00;99.90
8152;DHT22;4117;53.622;9.958;2024-03-22T05:30:13;9.00;99.90
8152;DHT22;4117;53.622;9.958;2024-03-22T05:32:41;9.00;99.90
8152;DHT22;4117;53.622;9.958;2024-03-22T05:35:08;9.00;99.90
8152;DHT22;4117;53.622;9.958;2024-03-22T05:37:35;9.00;99.90
8152;DHT22;4117;53.622;9.958;2024-03-22T05:40:01;9.00;99.90
8152;DHT22;4117;53.622;9.958;2024-03-22T05:42:29;9.00;99.90
8152;DHT22;4117;53.622;9.958;2024-03-22T05:44:55;9.00;99.90
8152;DHT22;4117;53.622;9.958;2024-03-22T05:47:22;9.00;99.90
8152;DHT22;4117;53.622;9.958;2024-03-22T05:49:50;9.10;99.90
8152;DHT22;4117;53.622;9.958;2024-03-22T05:52:17;9.10;99.90
8152;DHT22;4117;53.622;9.958;2024-03-22T05:54:44;9.10;99.90
8152;DHT22;4117;53.622;9.958;2024-03-22T05:57:10;9.10;99.90
8152;DHT22;4117;53.622;9.958;2024-03-22T05:59:37;9.10;99.90
8152;DHT22;4117;53.622;9.958;2024-03-22T06:02:04;9.10;99.90
8152;DHT22;4117;53.622;9.958;2024-03-22T06:04:31;9.10;99.90
8152;DHT22;4117;53.622;9.958;2024-03-22T06:06:58;9.20;99.90
8152;DHT22;4117;53.622;9.958;2024-03-22T06:09:25;9.20;99.90
8152;DHT22;4117;53.622;9.958;2024-03-22T06:12:03;9.20;99.90
8152;DHT22;4117;53.622;9.958;2024-03-22T06:14:30;9.20;99.90
8152;DHT22;4117;53.622;9.958;2024-03-22T06:16:56;9.20;99.90
8152;DHT22;4117;53.622;9.958;2024-03-22T06:19:23;9.30;99.90
8152;DHT22;4117;53.622;9.958;2024-03-22T06:21:49;9.30;99.90
8152;DHT22;4117;53.622;9.958;2024-03-22T06:24:17;9.30;99.90
8152;DHT22;4117;53.622;9.958;2024-03-22T06:26:43;9.30;99.90
8152;DHT22;4117;53.622;9.958;2024-03-22T06:29:10;9.40;99.90
8152;DHT22;4117;53.622;9.958;2024-03-22T06:31:36;9.40;99.90
8152;DHT22;4117;53.622;9.958;2024-03-22T06:34:03;9.40;99.90
8152;DHT22;4117;53.622;9.958;2024-03-22T06:36:31;9.50;99.90
8152;DHT22;4117;53.622;9.958;2024-03-22T06:38:58;9.50;99.90
8152;DHT22;4117;53.622;9.958;2024-03-22T06:41:26;9.50;99.90
8152;DHT22;4117;53.622;9.958;2024-03-22T06:43:53;9.50;99.90
8152;DHT22;4117;53.622;9.958;2024-03-22T06:46:19;9.50;99.90
8152;DHT22;4117;53.622;9.958;2024-03-22T06:48:46;9.60;99.90
8152;DHT22;4117;53.622;9.958;2024-03-22T06:51:12;9.60;99.90
8152;DHT22;4117;53.622;9.958;2024-03-22T06:53:39;9.60;99.90
8152;DHT22;4117;53.622;9.958;2024-03-22T06:56:05;9.60;99.90
8152;DHT22;4117;53.622;9.958;2024-03-22T06:58:35;9.60;99.90
8152;DHT22;4117;53.622;9.958;2024-03-22T07:01:02;9.60;99.90
8152;DHT22;4117;53.622;9.958;2024-03-22T07:03:29;9.60;99.90
8152;DHT22;4117;53.622;9.958;2024-03-22T07:05:55;9.70;99.90
8152;DHT22;4117;53.622;9.958;2024-03-22T07:08:23;9.70;99.90
8152;DHT22;4117;53.622;9.958;2024-03-22T07:10:49;9.70;99.90
8152;DHT22;4117;53.622;9.958;2024-03-22T07:13:16;9.70;99.90
8152;DHT22;4117;53.622;9.958;2024-03-22T07:15:45;9.70;99.90
8152;DHT22;4117;53.622;9.958;2024-03-22T07:18:13;9.70;99.90
8152;DHT22;4117;53.622;9.958;2024-03-22T07:20:39;9.80;99.90
8152;DHT22;4117;53.622;9.958;2024-03-22T07:23:06;9.80;99.90
8152;DHT22;4117;53.622;9.958;2024-03-22T07:25:32;9.80;99.90
8152;DHT22;4117;53.622;9.958;2024-03-22T07:27:58;9.80;99.90
8152;DHT22;4117;53.622;9.958;2024-03-22T07:30:24;9.90;99.90
8152;DHT22;4117;53.622;9.958;2024-03-22T07:32:53;9.90;99.90
8152;DHT22;4117;53.622;9.958;2024-03-22T07:35:19;9.90;99.90
8152;DHT22;4117;53.622;9.958;2024-03-22T07:37:46;9.90;99.90
8152;DHT22;4117;53.622;9.958;2024-03-22T07:40:12;10.00;99.90
8152;DHT22;4117;53.622;9.958;2024-03-22T07:42:39;10.00;99.90
8152;DHT22;4117;53.622;9.958;2024-03-22T07:45:05;10.00;99.90
8152;DHT22;4117;53.622;9.958;2024-03-22T07:47:32;10.00;99.90
8152;DHT22;4117;53.622;9.958;2024-03-22T07:50:01;10.00;99.90
8152;DHT22;4117;53.622;9.958;2024-03-22T07:52:28;10.00;99.90
8152;DHT22;4117;53.622;9.958;2024-03-22T07:54:54;10.00;99.90
8152;DHT22;4117;53.622;9.958;2024-03-22T07:57:21;10.00;99.90
8152;DHT22;4117;53.622;9.958;2024-03-22T07:59:48;10.10;99.90
8152;DHT22;4117;53.622;9.958;2024-03-22T08:02:15;10.10;99.90
8152;DHT22;4117;53.622;9.958;2024-03-22T08:04:41;10.10;99.90
8152;DHT22;4117;53.622;9.958;2024-03-22T08:07:09;10.10;99.90
8152;DHT22;4117;53.622;9.958;2024-03-22T08:09:35;10.10;99.90
8152;DHT22;4117;53.622;9.958;2024-03-22T08:12:03;10.10;99.90
8152;DHT22;4117;53.622;9.958;2024-03-22T08:14:29;10.10;99.90
8152;DHT22;4117;53.622;9.958;2024-03-22T08:16:56;10.10;99.90
8152;DHT22;4117;53.622;9.958;2024-03-22T08:19:22;10.10;99.90
8152;DHT22;4117;53.622;9.958;2024-03-22T08:21:49;10.20;99.90
8152;DHT22;4117;53.622;9.958;2024-03-22T08:24:16;10.20;99.90
8152;DHT22;4117;53.622;9.958;2024-03-22T08:26:43;10.20;99.90
8152;DHT22;4117;53.622;9.958;2024-03-22T08:29:12;10.20;99.90
8152;DHT22;4117;53.622;9.958;2024-03-22T08:31:40;10.20;99.90
8152;DHT22;4117;53.622;9.958;2024-03-22T08:34:06;10.20;99.90
8152;DHT22;4117;53.622;9.958;2024-03-22T08:36:33;10.20;99.90
8152;DHT22;4117;53.622;9.958;2024-03-22T08:38:59;10.20;99.90
8152;DHT22;4117;53.622;9.958;2024-03-22T08:41:27;10.10;99.90
8152;DHT22;4117;53.622;9.958;2024-03-22T08:43:53;10.10;99.90
8152;DHT22;4117;53.622;9.958;2024-03-22T08:46:20;10.10;99.90
8152;DHT22;4117;53.622;9.958;2024-03-22T08:48:48;10.10;99.90
8152;DHT22;4117;53.622;9.958;2024-03-22T08:51:15;10.10;99.90
8152;DHT22;4117;53.622;9.958;2024-03-22T08:53:41;10.10;99.90
8152;DHT22;4117;53.622;9.958;2024-03-22T08:56:08;10.10;99.90
8152;DHT22;4117;53.622;9.958;2024-03-22T08:58:36;10.10;99.90
8152;DHT22;4117;53.622;9.958;2024-03-22T09:01:03;10.10;99.90
8152;DHT22;4117;53.622;9.958;2024-03-22T09:03:29;10.10;99.90
8152;DHT22;4117;53.622;9.958;2024-03-22T09:05:56;10.10;99.90
8152;DHT22;4117;53.622;9.958;2024-03-22T09:08:22;10.10;99.90
8152;DHT22;4117;53.622;9.958;2024-03-22T09:10:49;10.10;99.90
8152;DHT22;4117;53.622;9.958;2024-03-22T09:13:15;10.10;99.90
8152;DHT22;4117;53.622;9.958;2024-03-22T09:15:43;10.10;99.90
8152;DHT22;4117;53.622;9.958;2024-03-22T09:18:09;10.10;99.90
8152;DHT22;4117;53.622;9.958;2024-03-22T09:20:36;10.10;99.90
8152;DHT22;4117;53.622;9.958;2024-03-22T09:23:02;10.10;99.90
8152;DHT22;4117;53.622;9.958;2024-03-22T09:25:29;10.10;99.90
8152;DHT22;4117;53.622;9.958;2024-03-22T09:27:55;10.10;99.90
8152;DHT22;4117;53.622;9.958;2024-03-22T09:30:22;10.10;99.90
8152;DHT22;4117;53.622;9.958;2024-03-22T09:32:49;10.20;99.90
8152;DHT22;4117;53.622;9.958;2024-03-22T09:35:17;10.20;99.90
8152;DHT22;4117;53.622;9.958;2024-03-22T09:37:43;10.20;99.90
8152;DHT22;4117;53.622;9.958;2024-03-22T09:40:11;10.20;99.90
8152;DHT22;4117;53.622;9.958;2024-03-22T09:42:38;10.20;99.90
8152;DHT22;4117;53.622;9.958;2024-03-22T09:45:09;10.20;99.90
8152;DHT22;4117;53.622;9.958;2024-03-22T09:47:36;10.20;99.90
8152;DHT22;4117;53.622;9.958;2024-03-22T09:50:07;10.20;99.90
8152;DHT22;4117;53.622;9.958;2024-03-22T09:52:34;10.20;99.90
8152;DHT22;4117;53.622;9.958;2024-03-22T09:55:02;10.20;99.90
8152;DHT22;4117;53.622;9.958;2024-03-22T09:57:31;10.20;99.90
8152;DHT22;4117;53.622;9.958;2024-03-22T09:59:59;10.20;99.90
8152;DHT22;4117;53.622;9.958;2024-03-22T10:02:25;10.20;99.90
8152;DHT22;4117;53.622;9.958;2024-03-22T10:04:53;10.20;99.90
8152;DHT22;4117;53.622;9.958;2024-03-22T10:07:20;10.20;99.90
8152;DHT22;4117;53.622;9.958;2024-03-22T10:09:47;10.20;99.90
8152;DHT22;4117;53.622;9.958;2024-03-22T10:12:13;10.20;99.90
8152;DHT22;4117;53.622;9.958;2024-03-22T10:14:43;10.20;99.90
8152;DHT22;4117;53.622;9.958;2024-03-22T10:17:09;10.30;99.90
8152;DHT22;4117;53.622;9.958;2024-03-22T10:19:36;10.20;99.90
8152;DHT22;4117;53.622;9.958;2024-03-22T10:22:03;10.20;99.90
8152;DHT22;4117;53.622;9.958;2024-03-22T10:24:32;10.20;99.90
8152;DHT22;4117;53.622;9.958;2024-03-22T10:26:58;10.30;99.90
8152;DHT22;4117;53.622;9.958;2024-03-22T10:29:26;10.30;99.90
8152;DHT22;4117;53.622;9.958;2024-03-22T10:31:53;10.30;99.90
8152;DHT22;4117;53.622;9.958;2024-03-22T10:34:21;10.20;99.90
8152;DHT22;4117;53.622;9.958;2024-03-22T10:36:47;10.20;99.90
8152;DHT22;4117;53.622;9.958;2024-03-22T10:39:16;10.20;99.90
8152;DHT22;4117;53.622;9.958;2024-03-22T10:41:44;10.20;99.90
8152;DHT22;4117;53.622;9.958;2024-03-22T10:44:11;10.20;99.90
8152;DHT22;4117;53.622;9.958;2024-03-22T10:46:38;10.20;99.90
8152;DHT22;4117;53.622;9.958;2024-03-22T10:49:08;10.20;99.90
8152;DHT22;4117;53.622;9.958;2024-03-22T10:51:35;10.20;99.90
8152;DHT22;4117;53.622;9.958;2024-03-22T10:54:03;10.20;99.90
8152;DHT22;4117;53.622;9.958;2024-03-22T10:56:30;10.20;1.00
8152;DHT22;4117;53.622;9.958;2024-03-22T10:59:03;10.10;1.00
8152;DHT22;4117;53.622;9.958;2024-03-22T11:01:31;10.10;1.00
8152;DHT22;4117;53.622;9.958;2024-03-22T11:04:05;10.10;1.00
8152;DHT22;4117;53.622;9.958;2024-03-22T11:06:32;10.10;1.00
8152;DHT22;4117;53.622;9.958;2024-03-22T11:08:59;10.10;1.00
8152;DHT22;4117;53.622;9.958;2024-03-22T11:11:28;10.10;99.90
8152;DHT22;4117;53.622;9.958;2024-03-22T11:13:57;10.20;99.90
8152;DHT22;4117;53.622;9.958;2024-03-22T11:16:24;10.20;99.90
8152;DHT22;4117;53.622;9.958;2024-03-22T11:18:52;10.20;99.90
8152;DHT22;4117;53.622;9.958;2024-03-22T11:21:18;10.20;99.90
8152;DHT22;4117;53.622;9.958;2024-03-22T11:23:45;10.20;99.90
8152;DHT22;4117;53.622;9.958;2024-03-22T11:26:11;10.20;99.90
8152;DHT22;4117;53.622;9.958;2024-03-22T11:28:39;10.20;99.90
8152;DHT22;4117;53.622;9.958;2024-03-22T11:31:05;10.10;99.90
8152;DHT22;4117;53.622;9.958;2024-03-22T11:33:33;10.10;99.90
8152;DHT22;4117;53.622;9.958;2024-03-22T11:36:00;10.10;99.90
8152;DHT22;4117;53.622;9.958;2024-03-22T11:38:28;10.20;99.90
8152;DHT22;4117;53.622;9.958;2024-03-22T11:40:58;10.10;99.90
8152;DHT22;4117;53.622;9.958;2024-03-22T11:43:26;10.20;99.90
8152;DHT22;4117;53.622;9.958;2024-03-22T11:45:53;10.20;99.90
8152;DHT22;4117;53.622;9.958;2024-03-22T11:48:20;10.20;99.90
8152;DHT22;4117;53.622;9.958;2024-03-22T11:50:49;10.20;99.90
8152;DHT22;4117;53.622;9.958;2024-03-22T11:53:16;10.20;99.90
8152;DHT22;4117;53.622;9.958;2024-03-22T11:55:42;10.20;99.90
8152;DHT22;4117;53.622;9.958;2024-03-22T11:58:09;10.20;99.90
8152;DHT22;4117;53.622;9.958;2024-03-22T12:00:36;10.20;99.90
8152;DHT22;4117;53.622;9.958;2024-03-22T12:03:04;10.20;99.90
8152;DHT22;4117;53.622;9.958;2024-03-22T12:05:31;10.20;99.90
8152;DHT22;4117;53.622;9.958;2024-03-22T12:08:00;10.20;99.90
8152;DHT22;4117;53.622;9.958;2024-03-22T12:10:26;10.20;99.90
8152;DHT22;4117;53.622;9.958;2024-03-22T12:12:52;10.20;99.90
8152;DHT22;4117;53.622;9.958;2024-03-22T12:15:19;10.20;99.90
8152;DHT22;4117;53.622;9.958;2024-03-22T12:17:47;10.20;99.90
8152;DHT22;4117;53.622;9.958;2024-03-22T12:20:13;10.20;99.90
8152;DHT22;4117;53.622;9.958;2024-03-22T12:22:41;10.30;99.90
8152;DHT22;4117;53.622;9.958;2024-03-22T12:25:09;10.20;99.90
8152;DHT22;4117;53.622;9.958;2024-03-22T12:27:37;10.20;99.90
8152;DHT22;4117;53.622;9.958;2024-03-22T12:30:04;10.20;99.90
8152;DHT22;4117;53.622;9.958;2024-03-22T12:32:31;10.20;99.90
8152;DHT22;4117;53.622;9.958;2024-03-22T12:34:57;10.20;99.90
8152;DHT22;4117;53.622;9.958;2024-03-22T12:37:24;10.20;99.90
8152;DHT22;4117;53.622;9.958;2024-03-22T12:39:50;10.20;99.90
8152;DHT22;4117;53.622;9.958;2024-03-22T12:42:19;10.10;99.90
8152;DHT22;4117;53.622;9.958;2024-03-22T12:44:45;10.20;99.90
8152;DHT22;4117;53.622;9.958;2024-03-22T12:47:12;10.10;99.90
8152;DHT22;4117;53.622;9.958;2024-03-22T12:49:37;10.00;99.90
8152;DHT22;4117;53.622;9.958;2024-03-22T12:52:05;10.00;1.00
8152;DHT22;4117;53.622;9.958;2024-03-22T12:54:31;9.90;1.00
8152;DHT22;4117;53.622;9.958;2024-03-22T12:56:58;9.90;1.00
8152;DHT22;4117;53.622;9.958;2024-03-22T12:59:25;10.00;1.00
8152;DHT22;4117;53.622;9.958;2024-03-22T13:01:52;10.00;1.00
8152;DHT22;4117;53.622;9.958;2024-03-22T13:04:19;10.10;1.00
8152;DHT22;4117;53.622;9.958;2024-03-22T13:06:46;10.10;1.00
8152;DHT22;4117;53.622;9.958;2024-03-22T13:09:13;10.10;1.00
8152;DHT22;4117;53.622;9.958;2024-03-22T13:11:39;10.10;1.00
8152;DHT22;4117;53.622;9.958;2024-03-22T13:14:06;10.10;1.00
8152;DHT22;4117;53.622;9.958;2024-03-22T13:16:33;10.10;1.00
8152;DHT22;4117;53.622;9.958;2024-03-22T13:19:00;10.00;1.00
8152;DHT22;4117;53.622;9.958;2024-03-22T13:21:26;9.90;1.00
8152;DHT22;4117;53.622;9.958;2024-03-22T13:23:53;9.90;1.00
8152;DHT22;4117;53.622;9.958;2024-03-22T13:26:20;9.90;1.00
8152;DHT22;4117;53.622;9.958;2024-03-22T13:28:47;9.90;1.00
8152;DHT22;4117;53.622;9.958;2024-03-22T13:31:13;9.90;1.00
8152;DHT22;4117;53.622;9.958;2024-03-22T13:33:42;9.90;1.00
8152;DHT22;4117;53.622;9.958;2024-03-22T13:36:08;9.90;1.00
8152;DHT22;4117;53.622;9.958;2024-03-22T13:38:35;9.90;1.00
8152;DHT22;4117;53.622;9.958;2024-03-22T13:41:01;9.90;1.00
8152;DHT22;4117;53.622;9.958;2024-03-22T13:43:29;9.80;1.00
8152;DHT22;4117;53.622;9.958;2024-03-22T13:45:55;9.80;1.00
8152;DHT22;4117;53.622;9.958;2024-03-22T13:48:24;9.80;1.00
8152;DHT22;4117;53.622;9.958;2024-03-22T13:50:52;9.80;1.00
8152;DHT22;4117;53.622;9.958;2024-03-22T13:53:20;9.80;1.00
8152;DHT22;4117;53.622;9.958;2024-03-22T13:55:47;9.80;1.00
8152;DHT22;4117;53.622;9.958;2024-03-22T13:58:18;9.80;1.00
8152;DHT22;4117;53.622;9.958;2024-03-22T14:00:44;9.80;1.00
8152;DHT22;4117;53.622;9.958;2024-03-22T14:03:11;9.90;1.00
8152;DHT22;4117;53.622;9.958;2024-03-22T14:05:37;9.80;1.00
8152;DHT22;4117;53.622;9.958;2024-03-22T14:08:06;9.90;1.00
8152;DHT22;4117;53.622;9.958;2024-03-22T14:10:32;9.80;1.00
8152;DHT22;4117;53.622;9.958;2024-03-22T14:12:59;9.80;99.90
8152;DHT22;4117;53.622;9.958;2024-03-22T14:15:25;9.80;1.00
8152;DHT22;4117;53.622;9.958;2024-03-22T14:17:57;9.90;1.00
8152;DHT22;4117;53.622;9.958;2024-03-22T14:20:23;9.90;1.00
8152;DHT22;4117;53.622;9.958;2024-03-22T14:22:53;9.90;1.00
8152;DHT22;4117;53.622;9.958;2024-03-22T14:25:20;9.80;1.00
8152;DHT22;4117;53.622;9.958;2024-03-22T14:27:47;9.70;99.90
8152;DHT22;4117;53.622;9.958;2024-03-22T14:30:14;9.60;99.90
8152;DHT22;4117;53.622;9.958;2024-03-22T14:32:41;9.50;99.90
8152;DHT22;4117;53.622;9.958;2024-03-22T14:35:08;9.50;99.90
8152;DHT22;4117;53.622;9.958;2024-03-22T14:37:36;9.50;99.90
8152;DHT22;4117;53.622;9.958;2024-03-22T14:40:02;9.50;99.90
8152;DHT22;4117;53.622;9.958;2024-03-22T14:42:34;9.50;99.90
8152;DHT22;4117;53.622;9.958;2024-03-22T14:45:01;9.50;99.90
8152;DHT22;4117;53.622;9.958;2024-03-22T14:47:28;9.50;99.90
8152;DHT22;4117;53.622;9.958;2024-03-22T14:49:54;9.50;99.90
8152;DHT22;4117;53.622;9.958;2024-03-22T14:52:21;9.40;99.90
8152;DHT22;4117;53.622;9.958;2024-03-22T14:54:47;9.40;99.90
8152;DHT22;4117;53.622;9.958;2024-03-22T14:57:14;9.40;99.90
8152;DHT22;4117;53.622;9.958;2024-03-22T14:59:41;9.40;99.90
8152;DHT22;4117;53.622;9.958;2024-03-22T15:02:08;9.30;99.90
8152;DHT22;4117;53.622;9.958;2024-03-22T15:04:34;9.40;99.90
8152;DHT22;4117;53.622;9.958;2024-03-22T15:07:01;9.40;99.90
8152;DHT22;4117;53.622;9.958;2024-03-22T15:09:27;9.30;99.90
8152;DHT22;4117;53.622;9.958;2024-03-22T15:11:54;9.30;99.90
8152;DHT22;4117;53.622;9.958;2024-03-22T15:14:24;9.40;99.90
8152;DHT22;4117;53.622;9.958;2024-03-22T15:16:54;9.40;99.90
8152;DHT22;4117;53.622;9.958;2024-03-22T15:19:20;9.30;99.90
8152;DHT22;4117;53.622;9.958;2024-03-22T15:21:48;9.30;99.90
8152;DHT22;4117;53.622;9.958;2024-03-22T15:24:14;9.30;99.90
8152;DHT22;4117;53.622;9.958;2024-03-22T15:26:41;9.30;99.90
8152;DHT22;4117;53.622;9.958;2024-03-22T15:29:07;9.30;99.90
8152;DHT22;4117;53.622;9.958;2024-03-22T15:31:34;9.30;99.90
8152;DHT22;4117;53.622;9.958;2024-03-22T15:34:02;9.30;99.90
8152;DHT22;4117;53.622;9.958;2024-03-22T15:36:31;9.30;99.90
8152;DHT22;4117;53.622;9.958;2024-03-22T15:38:57;9.30;99.90
8152;DHT22;4117;53.622;9.958;2024-03-22T15:41:24;9.40;99.90
8152;DHT22;4117;53.622;9.958;2024-03-22T15:43:50;9.40;99.90
8152;DHT22;4117;53.622;9.958;2024-03-22T15:46:16;9.30;99.90
8152;DHT22;4117;53.622;9.958;2024-03-22T15:48:44;9.40;99.90
8152;DHT22;4117;53.622;9.958;2024-03-22T15:51:12;9.30;99.90
8152;DHT22;4117;53.622;9.958;2024-03-22T15:53:39;9.30;99.90
8152;DHT22;4117;53.622;9.958;2024-03-22T15:56:07;9.30;99.90
8152;DHT22;4117;53.622;9.958;2024-03-22T15:58:34;9.30;99.90
8152;DHT22;4117;53.622;9.958;2024-03-22T16:01:01;9.30;99.90
8152;DHT22;4117;53.622;9.958;2024-03-22T16:03:28;9.30;99.90
8152;DHT22;4117;53.622;9.958;2024-03-22T16:05:57;9.30;99.90
8152;DHT22;4117;53.622;9.958;2024-03-22T16:08:25;9.20;99.90
8152;DHT22;4117;53.622;9.958;2024-03-22T16:10:52;9.30;99.90
8152;DHT22;4117;53.622;9.958;2024-03-22T16:13:18;9.30;99.90